Christina O — C6FN7 — position and weather

sailwx.info

Track history (hours):
 
Tides and Currents Weather Stations Pressure Air Temp Water Temp Dewpoint Dewpoint Depression Visibility Wind Speed Wind Dir Waves Ship Positions

Christina O

Operator: V Ships Leisure SAM

Last reported at 2018-Jul-22 07:00 UTC. Time now 2018-Jul-22 07:01 UTC.
Position N 43°18' E 005°22'.

Length 186 m; draft 6.1 m.

Type: Passenger vessel. MMSI: 308322000.

Date/timePositionNaut miles runAvg speedWind from/ knotsBaromVisibWave heightAir tempDewpointWater temp
2018-Jul-22 07:00N 43°18' E 005°22'0 0.0
2018-Jul-22 06:29N 43°18' E 005°22'0 0.0
2018-Jul-22 06:00N 43°18' E 005°22'0 0.0
2018-Jul-22 05:30N 43°18' E 005°22'0 0.1
2018-Jul-22 05:00N 43°18' E 005°22'2 4.9
2018-Jul-22 04:31N 43°16' E 005°19'67 3.2
2018-Jul-21 07:11N 43°21' E 006°51'311.5
2018-Jul-21 06:55N 43°22' E 006°55'511.4
2018-Jul-21 06:30N 43°24' E 007°01'611.2
2018-Jul-21 06:01N 43°27' E 007°08'510.8
2018-Jul-21 05:30N 43°31' E 007°13'612.2
2018-Jul-21 05:00N 43°37' E 007°15'4 0.2
2018-Jul-20 04:46N 43°40' E 007°17'3 9.9
2018-Jul-20 04:30N 43°39' E 007°20'714.5
2018-Jul-20 04:00N 43°40' E 007°30'714.5
2018-Jul-20 03:30N 43°41' E 007°40'914.1
2018-Jul-20 02:52N 43°43' E 007°52'514.1
2018-Jul-20 02:30N 43°44' E 007°59'815.3
2018-Jul-20 01:59N 43°45' E 008°10'715.0
2018-Jul-20 01:30N 43°46' E 008°20'714.8
2018-Jul-20 01:00N 43°48' E 008°30'715.0
2018-Jul-20 00:30N 43°49' E 008°40'815.2
2018-Jul-20 00:01N 43°50' E 008°50'815.1
2018-Jul-19 23:31N 43°51' E 009°01'815.0
2018-Jul-19 23:00N 43°53' E 009°11'714.9
2018-Jul-19 22:31N 43°54' E 009°21'715.0
2018-Jul-19 22:00N 43°55' E 009°32'714.8
2018-Jul-19 21:31N 43°57' E 009°42'815.1
2018-Jul-19 21:00N 44°00' E 009°51'3 5.9
2018-Jul-19 20:28N 44°03' E 009°51'0 0.1
2018-Jul-19 20:00N 44°03' E 009°51'0 0.0
2018-Jul-19 19:30N 44°03' E 009°51'0 0.0
2018-Jul-19 18:59N 44°03' E 009°51'0 0.0
2018-Jul-19 18:30N 44°03' E 009°51'0 0.0
2018-Jul-19 18:00N 44°03' E 009°51'0 0.0
2018-Jul-19 17:30N 44°03' E 009°51'0 0.0
2018-Jul-19 17:00N 44°03' E 009°51'0 0.0
2018-Jul-19 16:30N 44°03' E 009°51'0 0.0
2018-Jul-19 16:00N 44°03' E 009°51'0 0.0
2018-Jul-19 15:30N 44°03' E 009°51'0 0.0
2018-Jul-19 15:00N 44°03' E 009°51'0 0.0
2018-Jul-19 14:00N 44°03' E 009°51'0 0.0
2018-Jul-19 13:30N 44°03' E 009°51'0 0.0
2018-Jul-19 13:00N 44°03' E 009°51'0 0.0
2018-Jul-19 12:30N 44°03' E 009°51'0 0.0
2018-Jul-19 12:00N 44°03' E 009°51'0 0.0
2018-Jul-19 11:30N 44°03' E 009°51'0 0.0
2018-Jul-19 11:00N 44°03' E 009°51'0 0.0
2018-Jul-19 10:30N 44°03' E 009°51'0 0.0
2018-Jul-19 10:00N 44°03' E 009°51'0 0.0
2018-Jul-19 09:30N 44°03' E 009°51'0 0.0
2018-Jul-19 08:59N 44°03' E 009°51'0 0.0
2018-Jul-19 08:30N 44°03' E 009°51'0 0.1
2018-Jul-19 08:00N 44°03' E 009°51'0 0.0
2018-Jul-19 07:29N 44°03' E 009°51'0 0.0
2018-Jul-19 07:00N 44°03' E 009°51'0 0.0
2018-Jul-19 06:30N 44°03' E 009°51'0 0.0
2018-Jul-19 06:00N 44°03' E 009°51'0 0.0
2018-Jul-19 05:29N 44°03' E 009°51'2 3.8
2018-Jul-19 05:00N 44°02' E 009°53'510.7
2018-Jul-19 04:30N 43°57' E 009°55'714.3
2018-Jul-19 04:00N 43°50' E 009°54'714.8
2018-Jul-19 03:30N 43°43' E 009°52'713.7
2018-Jul-19 03:00N 43°36' E 009°54'714.1
2018-Jul-19 02:31N 43°31' E 009°60'612.7
2018-Jul-19 02:00N 43°25' E 010°04'713.7
2018-Jul-19 01:30N 43°19' E 010°09'713.8
2018-Jul-19 01:00N 43°13' E 010°13'714.1
2018-Jul-19 00:30N 43°07' E 010°18'714.1
2018-Jul-19 00:00N 43°01' E 010°23'714.0
2018-Jul-18 23:31N 42°55' E 010°28'713.7
2018-Jul-18 23:01N 42°49' E 010°33'714.5
2018-Jul-18 22:30N 42°43' E 010°39'714.9
2018-Jul-18 22:00N 42°37' E 010°45'815.1
2018-Jul-18 21:30N 42°31' E 010°51'715.1
2018-Jul-18 21:00N 42°25' E 010°57'815.0
2018-Jul-18 20:30N 42°21' E 011°06'1015.1
2018-Jul-18 19:50N 42°16' E 011°18'615.0
2018-Jul-18 19:26N 42°13' E 011°25'914.8
2018-Jul-18 18:50N 42°09' E 011°35'7 0.5
2018-Jul-18 05:08N 42°06' E 011°44'2 3.9
2018-Jul-18 04:43N 42°05' E 011°43'11113.6
2018-Jul-17 20:34N 40°50' E 013°32'114.4
2018-Jul-17 20:30N 40°49' E 013°33'714.2
2018-Jul-17 19:59N 40°44' E 013°40'714.3
2018-Jul-17 19:30N 40°39' E 013°47'713.4
2018-Jul-17 19:00N 40°38' E 013°55'714.1
2018-Jul-17 18:31N 40°39' E 014°05'714.1
2018-Jul-17 18:00N 40°39' E 014°14'612.9
2018-Jul-17 17:31N 40°39' E 014°22'0 0.8
2018-Jul-17 16:59N 40°38' E 014°23'0 0.0
2018-Jul-17 16:29N 40°38' E 014°23'0 0.1
2018-Jul-17 15:59N 40°38' E 014°23'0 0.0
2018-Jul-17 15:29N 40°38' E 014°23'0 0.1
2018-Jul-17 14:59N 40°38' E 014°23'0 0.1
2018-Jul-17 14:29N 40°38' E 014°23'0 0.2
2018-Jul-17 13:59N 40°38' E 014°23'0 0.1
2018-Jul-17 13:29N 40°38' E 014°23'0 0.0
2018-Jul-17 12:59N 40°38' E 014°23'0 0.1
2018-Jul-17 12:26N 40°38' E 014°23'0 0.1
2018-Jul-17 11:59N 40°38' E 014°23'0 0.0
2018-Jul-17 11:26N 40°38' E 014°23'0 0.0
2018-Jul-17 10:59N 40°38' E 014°23'0 0.1
2018-Jul-17 10:23N 40°38' E 014°23'0 0.0
2018-Jul-17 09:41N 40°38' E 014°23'0 0.2
2018-Jul-17 09:23N 40°38' E 014°23'0 0.0
2018-Jul-17 08:44N 40°38' E 014°23'0 0.2
2018-Jul-17 08:29N 40°38' E 014°23'0 0.0
2018-Jul-17 07:53N 40°38' E 014°23'0 0.1
2018-Jul-17 07:26N 40°38' E 014°23'0 0.1
2018-Jul-17 06:59N 40°38' E 014°23'0 0.1
2018-Jul-17 06:29N 40°38' E 014°23'0 0.1
2018-Jul-17 05:59N 40°38' E 014°23'0 0.0
2018-Jul-17 05:29N 40°38' E 014°23'0 0.2
2018-Jul-17 05:01N 40°38' E 014°23'4 8.0
2018-Jul-17 04:30N 40°38' E 014°18'714.5
2018-Jul-17 04:00N 40°34' E 014°10'714.9
2018-Jul-17 03:30N 40°27' E 014°05'815.1
2018-Jul-17 03:00N 40°21' E 013°60'814.8
2018-Jul-17 02:29N 40°14' E 013°55'2514.6
2018-Jul-17 00:45N 39°51' E 013°40'614.9
2018-Jul-17 00:22N 39°46' E 013°36'1315.2
2018-Jul-16 23:30N 39°35' E 013°28'815.4
2018-Jul-16 23:00N 39°28' E 013°23'1715.4
2018-Jul-16 21:56N 39°14' E 013°13'715.4
2018-Jul-16 21:29N 39°08' E 013°08'715.5
2018-Jul-16 21:00N 39°01' E 013°04'815.5
2018-Jul-16 20:30N 38°54' E 012°59'2315.6
2018-Jul-16 19:03N 38°34' E 012°45'115.5
2018-Jul-16 18:59N 38°34' E 012°44'1016.3
2018-Jul-16 18:22N 38°25' E 012°38'616.6
2018-Jul-16 18:00N 38°19' E 012°34'36 2.5
2018-Jul-16 03:42N 37°46' E 012°17'155 3.3
2018-Jul-14 05:22N 35°54' E 014°31'2 5.6
2018-Jul-14 05:00N 35°55' E 014°33'611.5
2018-Jul-14 04:30N 35°59' E 014°37'612.4
2018-Jul-14 04:00N 36°04' E 014°42'612.6
2018-Jul-14 03:30N 36°09' E 014°47'613.0
2018-Jul-14 03:00N 36°14' E 014°52'7113.4
2018-Jul-13 21:41N 37°09' E 015°48'  
Track history (hours):
 
Tides and Currents Weather Stations Pressure Air Temp Water Temp Dewpoint Dewpoint Depression Visibility Wind Speed Wind Dir Waves Ship Positions

Christina O

Operator: V Ships Leisure SAM

Last reported at 2018-Jul-22 07:00 UTC. Time now 2018-Jul-22 07:01 UTC.
Position N 43°18' E 005°22'.

Length 186 m; draft 6.1 m.

Type: Passenger vessel. MMSI: 308322000.

Date/timePositionNaut miles runAvg speedWind from/ knotsBaromVisibWave heightAir tempDewpointWater temp
2018-Jul-22 07:00N 43°18' E 005°22'0 0.0
2018-Jul-22 06:29N 43°18' E 005°22'0 0.0
2018-Jul-22 06:00N 43°18' E 005°22'0 0.0
2018-Jul-22 05:30N 43°18' E 005°22'0 0.1
2018-Jul-22 05:00N 43°18' E 005°22'2 4.9
2018-Jul-22 04:31N 43°16' E 005°19'67 3.2
2018-Jul-21 07:11N 43°21' E 006°51'311.5
2018-Jul-21 06:55N 43°22' E 006°55'511.4
2018-Jul-21 06:30N 43°24' E 007°01'611.2
2018-Jul-21 06:01N 43°27' E 007°08'510.8
2018-Jul-21 05:30N 43°31' E 007°13'612.2
2018-Jul-21 05:00N 43°37' E 007°15'4 0.2
2018-Jul-20 04:46N 43°40' E 007°17'3 9.9
2018-Jul-20 04:30N 43°39' E 007°20'714.5
2018-Jul-20 04:00N 43°40' E 007°30'714.5
2018-Jul-20 03:30N 43°41' E 007°40'914.1
2018-Jul-20 02:52N 43°43' E 007°52'514.1
2018-Jul-20 02:30N 43°44' E 007°59'815.3
2018-Jul-20 01:59N 43°45' E 008°10'715.0
2018-Jul-20 01:30N 43°46' E 008°20'714.8
2018-Jul-20 01:00N 43°48' E 008°30'715.0
2018-Jul-20 00:30N 43°49' E 008°40'815.2
2018-Jul-20 00:01N 43°50' E 008°50'815.1
2018-Jul-19 23:31N 43°51' E 009°01'815.0
2018-Jul-19 23:00N 43°53' E 009°11'714.9
2018-Jul-19 22:31N 43°54' E 009°21'715.0
2018-Jul-19 22:00N 43°55' E 009°32'714.8
2018-Jul-19 21:31N 43°57' E 009°42'815.1
2018-Jul-19 21:00N 44°00' E 009°51'3 5.9
2018-Jul-19 20:28N 44°03' E 009°51'0 0.1
2018-Jul-19 20:00N 44°03' E 009°51'0 0.0
2018-Jul-19 19:30N 44°03' E 009°51'0 0.0
2018-Jul-19 18:59N 44°03' E 009°51'0 0.0
2018-Jul-19 18:30N 44°03' E 009°51'0 0.0
2018-Jul-19 18:00N 44°03' E 009°51'0 0.0
2018-Jul-19 17:30N 44°03' E 009°51'0 0.0
2018-Jul-19 17:00N 44°03' E 009°51'0 0.0
2018-Jul-19 16:30N 44°03' E 009°51'0 0.0
2018-Jul-19 16:00N 44°03' E 009°51'0 0.0
2018-Jul-19 15:30N 44°03' E 009°51'0 0.0
2018-Jul-19 15:00N 44°03' E 009°51'0 0.0
2018-Jul-19 14:00N 44°03' E 009°51'0 0.0
2018-Jul-19 13:30N 44°03' E 009°51'0 0.0
2018-Jul-19 13:00N 44°03' E 009°51'0 0.0
2018-Jul-19 12:30N 44°03' E 009°51'0 0.0
2018-Jul-19 12:00N 44°03' E 009°51'0 0.0
2018-Jul-19 11:30N 44°03' E 009°51'0 0.0
2018-Jul-19 11:00N 44°03' E 009°51'0 0.0
2018-Jul-19 10:30N 44°03' E 009°51'0 0.0
2018-Jul-19 10:00N 44°03' E 009°51'0 0.0
2018-Jul-19 09:30N 44°03' E 009°51'0 0.0
2018-Jul-19 08:59N 44°03' E 009°51'0 0.0
2018-Jul-19 08:30N 44°03' E 009°51'0 0.1
2018-Jul-19 08:00N 44°03' E 009°51'0 0.0
2018-Jul-19 07:29N 44°03' E 009°51'0 0.0
2018-Jul-19 07:00N 44°03' E 009°51'0 0.0
2018-Jul-19 06:30N 44°03' E 009°51'0 0.0
2018-Jul-19 06:00N 44°03' E 009°51'0 0.0
2018-Jul-19 05:29N 44°03' E 009°51'2 3.8
2018-Jul-19 05:00N 44°02' E 009°53'510.7
2018-Jul-19 04:30N 43°57' E 009°55'714.3
2018-Jul-19 04:00N 43°50' E 009°54'714.8
2018-Jul-19 03:30N 43°43' E 009°52'713.7
2018-Jul-19 03:00N 43°36' E 009°54'714.1
2018-Jul-19 02:31N 43°31' E 009°60'612.7
2018-Jul-19 02:00N 43°25' E 010°04'713.7
2018-Jul-19 01:30N 43°19' E 010°09'713.8
2018-Jul-19 01:00N 43°13' E 010°13'714.1
2018-Jul-19 00:30N 43°07' E 010°18'714.1
2018-Jul-19 00:00N 43°01' E 010°23'714.0
2018-Jul-18 23:31N 42°55' E 010°28'713.7
2018-Jul-18 23:01N 42°49' E 010°33'714.5
2018-Jul-18 22:30N 42°43' E 010°39'714.9
2018-Jul-18 22:00N 42°37' E 010°45'815.1
2018-Jul-18 21:30N 42°31' E 010°51'715.1
2018-Jul-18 21:00N 42°25' E 010°57'815.0
2018-Jul-18 20:30N 42°21' E 011°06'1015.1
2018-Jul-18 19:50N 42°16' E 011°18'615.0
2018-Jul-18 19:26N 42°13' E 011°25'914.8
2018-Jul-18 18:50N 42°09' E 011°35'7 0.5
2018-Jul-18 05:08N 42°06' E 011°44'2 3.9
2018-Jul-18 04:43N 42°05' E 011°43'11113.6
2018-Jul-17 20:34N 40°50' E 013°32'114.4
2018-Jul-17 20:30N 40°49' E 013°33'714.2
2018-Jul-17 19:59N 40°44' E 013°40'714.3
2018-Jul-17 19:30N 40°39' E 013°47'713.4
2018-Jul-17 19:00N 40°38' E 013°55'714.1
2018-Jul-17 18:31N 40°39' E 014°05'714.1
2018-Jul-17 18:00N 40°39' E 014°14'612.9
2018-Jul-17 17:31N 40°39' E 014°22'0 0.8
2018-Jul-17 16:59N 40°38' E 014°23'0 0.0
2018-Jul-17 16:29N 40°38' E 014°23'0 0.1
2018-Jul-17 15:59N 40°38' E 014°23'0 0.0
2018-Jul-17 15:29N 40°38' E 014°23'0 0.1
2018-Jul-17 14:59N 40°38' E 014°23'0 0.1
2018-Jul-17 14:29N 40°38' E 014°23'0 0.2
2018-Jul-17 13:59N 40°38' E 014°23'0 0.1
2018-Jul-17 13:29N 40°38' E 014°23'0 0.0
2018-Jul-17 12:59N 40°38' E 014°23'0 0.1
2018-Jul-17 12:26N 40°38' E 014°23'0 0.1
2018-Jul-17 11:59N 40°38' E 014°23'0 0.0
2018-Jul-17 11:26N 40°38' E 014°23'0 0.0
2018-Jul-17 10:59N 40°38' E 014°23'0 0.1
2018-Jul-17 10:23N 40°38' E 014°23'0 0.0
2018-Jul-17 09:41N 40°38' E 014°23'0 0.2
2018-Jul-17 09:23N 40°38' E 014°23'0 0.0
2018-Jul-17 08:44N 40°38' E 014°23'0 0.2
2018-Jul-17 08:29N 40°38' E 014°23'0 0.0
2018-Jul-17 07:53N 40°38' E 014°23'0 0.1
2018-Jul-17 07:26N 40°38' E 014°23'0 0.1
2018-Jul-17 06:59N 40°38' E 014°23'0 0.1
2018-Jul-17 06:29N 40°38' E 014°23'0 0.1
2018-Jul-17 05:59N 40°38' E 014°23'0 0.0
2018-Jul-17 05:29N 40°38' E 014°23'0 0.2
2018-Jul-17 05:01N 40°38' E 014°23'4 8.0
2018-Jul-17 04:30N 40°38' E 014°18'714.5
2018-Jul-17 04:00N 40°34' E 014°10'714.9
2018-Jul-17 03:30N 40°27' E 014°05'815.1
2018-Jul-17 03:00N 40°21' E 013°60'814.8
2018-Jul-17 02:29N 40°14' E 013°55'2514.6
2018-Jul-17 00:45N 39°51' E 013°40'614.9
2018-Jul-17 00:22N 39°46' E 013°36'1315.2
2018-Jul-16 23:30N 39°35' E 013°28'815.4
2018-Jul-16 23:00N 39°28' E 013°23'1715.4
2018-Jul-16 21:56N 39°14' E 013°13'715.4
2018-Jul-16 21:29N 39°08' E 013°08'715.5
2018-Jul-16 21:00N 39°01' E 013°04'815.5
2018-Jul-16 20:30N 38°54' E 012°59'2315.6
2018-Jul-16 19:03N 38°34' E 012°45'115.5
2018-Jul-16 18:59N 38°34' E 012°44'1016.3
2018-Jul-16 18:22N 38°25' E 012°38'616.6
2018-Jul-16 18:00N 38°19' E 012°34'36 2.5
2018-Jul-16 03:42N 37°46' E 012°17'155 3.3
2018-Jul-14 05:22N 35°54' E 014°31'2 5.6
2018-Jul-14 05:00N 35°55' E 014°33'611.5
2018-Jul-14 04:30N 35°59' E 014°37'612.4
2018-Jul-14 04:00N 36°04' E 014°42'612.6
2018-Jul-14 03:30N 36°09' E 014°47'613.0
2018-Jul-14 03:00N 36°14' E 014°52'7113.4
2018-Jul-13 21:41N 37°09' E 015°48'  

Dump ship's entire track history